Time;durP1;ratioP1;P1;durP2;ratioP2;P2;SDS_P1;SDS_P2;PMS_P1;PMS_P2;Temp;Humidity;BMP_temperature;BMP_pressure;BME280_temperature;BME280_humidity;BME280_pressure;Samples;Min_cycle;Max_cycle;Signal;HPM_P1;HPM_P2
2021/09/16 00:01:09;;;;;;;22.10;21.00;;;19.70;86.10;;;;;;5057589;28;20466;-70
2021/09/16 00:03:36;;;;;;;22.00;20.80;;;19.70;85.90;;;;;;5061649;28;20464;-70
2021/09/16 00:06:03;;;;;;;22.60;21.20;;;19.70;85.80;;;;;;5052935;28;21332;-70
2021/09/16 00:08:30;;;;;;;22.03;20.77;;;19.80;85.50;;;;;;5050355;28;20451;-70
2021/09/16 00:10:58;;;;;;;22.20;21.00;;;19.80;85.30;;;;;;5052687;28;20963;-70
2021/09/16 00:13:25;;;;;;;21.87;20.77;;;19.80;85.30;;;;;;5058737;28;20461;-70
2021/09/16 00:15:53;;;;;;;22.37;21.07;;;19.70;85.30;;;;;;5053290;28;20941;-68
2021/09/16 00:18:20;;;;;;;22.10;21.00;;;19.80;85.30;;;;;;5051690;28;20458;-67
2021/09/16 00:20:47;;;;;;;22.90;21.60;;;19.80;85.50;;;;;;5051173;28;20498;-67
2021/09/16 00:23:14;;;;;;;22.20;21.10;;;19.80;85.60;;;;;;5058536;28;20484;-67
2021/09/16 00:25:41;;;;;;;22.97;21.60;;;19.70;85.70;;;;;;5059135;28;20456;-67
2021/09/16 00:28:09;;;;;;;23.37;22.00;;;19.70;86.00;;;;;;5054781;28;20461;-68
2021/09/16 00:30:37;;;;;;;22.60;21.40;;;19.70;86.30;;;;;;5055551;28;20482;-68
2021/09/16 00:33:03;;;;;;;21.90;20.80;;;19.70;86.30;;;;;;5050921;28;20457;-68
2021/09/16 00:35:30;;;;;;;22.57;21.37;;;19.60;86.50;;;;;;5051149;28;20542;-68
2021/09/16 00:37:58;;;;;;;21.77;20.67;;;19.70;86.30;;;;;;5050452;28;20815;-68
2021/09/16 00:40:25;;;;;;;22.33;21.13;;;19.70;86.20;;;;;;5048298;28;20474;-68
2021/09/16 00:42:52;;;;;;;22.37;21.17;;;19.60;86.50;;;;;;5052304;28;21062;-68
2021/09/16 00:45:20;;;;;;;22.60;21.17;;;19.60;86.40;;;;;;5048079;28;20458;-68
2021/09/16 00:47:49;;;;;;;22.33;20.90;;;19.60;86.60;;;;;;5061467;28;20966;-68
2021/09/16 00:50:20;;;;;;;21.77;20.67;;;19.60;86.70;;;;;;5054466;28;20473;-68
2021/09/16 00:52:47;;;;;;;21.73;20.50;;;19.60;86.60;;;;;;5061440;28;20457;-68
2021/09/16 00:55:15;;;;;;;21.63;20.53;;;19.60;86.20;;;;;;5062619;28;20967;-68
2021/09/16 00:57:48;;;;;;;22.20;20.90;;;19.60;86.30;;;;;;5052971;28;20466;-68
2021/09/16 01:00:17;;;;;;;22.50;21.20;;;19.60;86.20;;;;;;5051810;28;21278;-67
2021/09/16 01:02:45;;;;;;;22.03;20.93;;;19.60;86.10;;;;;;5053601;28;20485;-68
2021/09/16 01:05:12;;;;;;;22.40;21.00;;;19.60;86.10;;;;;;5051622;28;20463;-68
2021/09/16 01:07:40;;;;;;;22.27;20.97;;;19.60;86.10;;;;;;5057244;28;20458;-68
2021/09/16 01:10:08;;;;;;;22.57;21.27;;;19.60;86.20;;;;;;5054001;28;20478;-68
2021/09/16 01:12:36;;;;;;;21.60;20.40;;;19.60;86.30;;;;;;5057585;28;20461;-70
2021/09/16 01:15:04;;;;;;;22.13;20.93;;;19.60;86.10;;;;;;5052886;28;22219;-70
2021/09/16 01:17:31;;;;;;;22.23;21.00;;;19.60;85.80;;;;;;5055947;28;20450;-71
2021/09/16 01:19:59;;;;;;;22.47;21.27;;;19.70;85.70;;;;;;5051684;28;20475;-68
2021/09/16 01:22:26;;;;;;;22.40;21.20;;;19.70;85.40;;;;;;5057000;28;21010;-67
2021/09/16 01:24:55;;;;;;;22.47;21.20;;;19.70;85.40;;;;;;5055127;28;20978;-67
2021/09/16 01:27:21;;;;;;;21.67;20.57;;;19.60;85.80;;;;;;5052316;28;20461;-67
2021/09/16 01:29:48;;;;;;;21.40;20.20;;;19.60;86.10;;;;;;5056462;28;20482;-67
2021/09/16 01:32:15;;;;;;;21.80;20.10;;;19.60;86.20;;;;;;5056361;28;20533;-67
2021/09/16 01:34:42;;;;;;;21.13;20.03;;;19.60;86.10;;;;;;5055809;28;20926;-67
2021/09/16 01:37:09;;;;;;;21.47;20.27;;;19.70;85.80;;;;;;5049637;28;20465;-67
2021/09/16 01:39:37;;;;;;;21.30;20.13;;;19.60;86.10;;;;;;5066012;28;21038;-67
2021/09/16 01:42:06;;;;;;;21.90;20.50;;;19.60;86.30;;;;;;5063379;28;21014;-67
2021/09/16 01:44:33;;;;;;;21.03;20.00;;;19.60;86.40;;;;;;5052216;28;20454;-67
2021/09/16 01:47:02;;;;;;;21.03;19.97;;;19.60;86.80;;;;;;5060416;28;20868;-67
2021/09/16 01:49:30;;;;;;;20.90;19.70;;;19.60;86.80;;;;;;5056075;28;20493;-67
2021/09/16 01:51:56;;;;;;;20.97;19.80;;;19.60;87.10;;;;;;5056260;28;20959;-67
2021/09/16 01:54:23;;;;;;;20.57;19.47;;;19.60;87.20;;;;;;5052440;28;20463;-67
2021/09/16 01:56:50;;;;;;;20.63;19.60;;;19.60;87.10;;;;;;5051833;28;20458;-68
2021/09/16 01:59:19;;;;;;;20.87;19.57;;;19.60;87.20;;;;;;5061465;28;20475;-67
2021/09/16 02:01:45;;;;;;;21.20;20.00;;;19.70;87.20;;;;;;5061784;28;20462;-67
2021/09/16 02:04:12;;;;;;;21.30;20.07;;;19.70;87.10;;;;;;5061626;28;20966;-67
2021/09/16 02:06:39;;;;;;;20.90;19.80;;;19.60;87.30;;;;;;5056979;28;21003;-67
2021/09/16 02:09:06;;;;;;;21.17;19.97;;;19.60;87.30;;;;;;5057876;28;20601;-67
2021/09/16 02:11:33;;;;;;;21.60;20.47;;;19.60;87.40;;;;;;5065538;28;20536;-67
2021/09/16 02:14:00;;;;;;;21.83;20.63;;;19.60;87.40;;;;;;5054323;28;20471;-67
2021/09/16 02:16:28;;;;;;;21.60;20.30;;;19.50;87.80;;;;;;5053287;28;20459;-67
2021/09/16 02:18:55;;;;;;;22.60;21.30;;;19.50;87.90;;;;;;5053915;28;20498;-67
2021/09/16 02:21:22;;;;;;;21.70;20.53;;;19.50;88.10;;;;;;5056988;28;20797;-67
2021/09/16 02:23:49;;;;;;;22.57;21.20;;;19.50;88.00;;;;;;5056604;28;20485;-67
2021/09/16 02:26:16;;;;;;;22.70;21.60;;;19.40;88.20;;;;;;5058948;28;20464;-67
2021/09/16 02:28:43;;;;;;;21.77;20.47;;;19.40;88.30;;;;;;5050699;28;20473;-67
2021/09/16 02:31:09;;;;;;;20.73;19.63;;;19.50;88.10;;;;;;5050957;28;20467;-67
2021/09/16 02:33:38;;;;;;;21.40;20.10;;;19.50;88.00;;;;;;5059636;28;20459;-67
2021/09/16 02:36:05;;;;;;;21.90;20.60;;;19.50;88.00;;;;;;5054096;28;20455;-67
2021/09/16 02:38:32;;;;;;;21.30;20.10;;;19.50;87.90;;;;;;5058230;28;20455;-67
2021/09/16 02:40:59;;;;;;;20.73;19.63;;;19.50;88.00;;;;;;5060588;28;20458;-68
2021/09/16 02:43:26;;;;;;;21.10;20.00;;;19.40;88.10;;;;;;5064055;28;20477;-67
2021/09/16 02:45:53;;;;;;;21.03;19.93;;;19.50;87.90;;;;;;5053240;28;20464;-67
2021/09/16 02:48:20;;;;;;;21.73;20.53;;;19.40;88.20;;;;;;5051446;28;20462;-68
2021/09/16 02:50:48;;;;;;;21.20;20.00;;;19.40;88.40;;;;;;5055079;28;20561;-68
2021/09/16 02:53:15;;;;;;;20.90;19.80;;;19.30;88.60;;;;;;5062282;28;20457;-68
2021/09/16 02:55:42;;;;;;;21.07;19.87;;;19.40;88.50;;;;;;5051609;28;20477;-68
2021/09/16 02:58:09;;;;;;;23.07;21.53;;;19.40;88.40;;;;;;5052612;28;20459;-67
2021/09/16 03:00:36;;;;;;;20.70;19.60;;;19.40;88.40;;;;;;5052364;28;21066;-68
2021/09/16 03:03:03;;;;;;;20.80;19.60;;;19.40;88.30;;;;;;5064632;28;20470;-67
2021/09/16 03:05:30;;;;;;;20.83;19.73;;;19.40;88.50;;;;;;5055594;28;20446;-68
2021/09/16 03:07:58;;;;;;;21.07;19.97;;;19.40;88.60;;;;;;5052639;28;20454;-68
2021/09/16 03:10:25;;;;;;;23.33;22.03;;;19.40;88.40;;;;;;5055545;28;20470;-68
2021/09/16 03:12:52;;;;;;;21.60;20.40;;;19.40;88.50;;;;;;5057029;28;20455;-68
2021/09/16 03:15:19;;;;;;;21.40;20.30;;;19.40;88.30;;;;;;5053419;28;20450;-68
2021/09/16 03:17:46;;;;;;;21.90;20.50;;;19.30;88.50;;;;;;5053944;28;20805;-68
2021/09/16 03:20:14;;;;;;;21.37;20.27;;;19.30;88.50;;;;;;5048759;28;20470;-67
2021/09/16 03:22:41;;;;;;;22.63;21.17;;;19.40;88.30;;;;;;5056952;28;20567;-68
2021/09/16 03:25:11;;;;;;;22.53;21.30;;;19.40;88.20;;;;;;5059496;28;20472;-67
2021/09/16 03:27:38;;;;;;;22.10;20.90;;;19.40;88.60;;;;;;5061108;28;20494;-68
2021/09/16 03:30:06;;;;;;;21.93;20.70;;;19.40;88.60;;;;;;5050978;28;20561;-67
2021/09/16 03:32:33;;;;;;;22.20;21.00;;;19.40;88.60;;;;;;5057801;28;20453;-67
2021/09/16 03:35:00;;;;;;;21.10;20.00;;;19.40;88.50;;;;;;5052707;28;21011;-67
2021/09/16 03:37:27;;;;;;;23.30;21.80;;;19.40;88.10;;;;;;5051531;28;20531;-67
2021/09/16 03:39:54;;;;;;;22.27;21.00;;;19.40;87.70;;;;;;5050058;28;21058;-67
2021/09/16 03:42:23;;;;;;;25.57;24.17;;;19.50;87.70;;;;;;5050977;28;20466;-68
2021/09/16 03:44:49;;;;;;;24.70;23.30;;;19.50;87.80;;;;;;5051581;28;21172;-68
2021/09/16 03:47:16;;;;;;;25.00;23.67;;;19.40;88.30;;;;;;5052866;28;20466;-68
2021/09/16 03:49:43;;;;;;;22.87;21.60;;;19.40;88.80;;;;;;5063346;28;20500;-68
2021/09/16 03:52:12;;;;;;;24.10;22.73;;;19.40;89.40;;;;;;5061047;28;20470;-68
2021/09/16 03:54:39;;;;;;;23.10;21.80;;;19.40;89.50;;;;;;5058348;28;20505;-68
2021/09/16 03:57:06;;;;;;;24.50;23.10;;;19.40;89.50;;;;;;5060734;28;22188;-68
2021/09/16 03:59:35;;;;;;;22.43;21.23;;;19.40;89.70;;;;;;5049725;28;20474;-68
2021/09/16 04:02:02;;;;;;;22.40;21.20;;;19.40;89.70;;;;;;5052379;28;20477;-68
2021/09/16 04:04:29;;;;;;;22.37;21.13;;;19.40;89.50;;;;;;5050973;28;20479;-68
2021/09/16 04:06:55;;;;;;;22.80;21.40;;;19.40;89.70;;;;;;5060994;28;20573;-68
2021/09/16 04:09:23;;;;;;;23.70;22.37;;;19.40;89.80;;;;;;5058915;28;21110;-68
2021/09/16 04:11:49;;;;;;;21.67;20.47;;;19.40;90.00;;;;;;5049292;28;21180;-68
2021/09/16 04:14:16;;;;;;;22.43;21.00;;;19.30;90.00;;;;;;5058618;28;20972;-68
2021/09/16 04:16:45;;;;;;;22.60;21.37;;;19.30;90.20;;;;;;5052758;28;20471;-68
2021/09/16 04:19:11;;;;;;;22.50;21.30;;;19.20;90.40;;;;;;5052199;28;20481;-68
2021/09/16 04:21:38;;;;;;;23.67;22.07;;;19.30;90.50;;;;;;5057687;28;20469;-68
2021/09/16 04:24:07;;;;;;;22.97;21.57;;;19.30;90.40;;;;;;5050754;28;20510;-67
2021/09/16 04:26:34;;;;;;;23.30;22.00;;;19.30;90.70;;;;;;5058845;28;20505;-67
2021/09/16 04:29:02;;;;;;;22.80;21.50;;;19.20;90.80;;;;;;5050733;28;20486;-67
2021/09/16 04:31:29;;;;;;;22.57;21.37;;;19.20;91.00;;;;;;5057194;28;20541;-67
2021/09/16 04:33:57;;;;;;;25.90;24.60;;;19.20;90.70;;;;;;5057151;28;20451;-67
2021/09/16 04:36:24;;;;;;;24.50;23.10;;;19.10;91.20;;;;;;5048884;28;20825;-68
2021/09/16 04:38:51;;;;;;;22.67;21.37;;;19.20;91.30;;;;;;5050016;28;20478;-68
2021/09/16 04:41:18;;;;;;;23.30;21.70;;;19.10;91.50;;;;;;5050306;28;20455;-68
2021/09/16 04:43:45;;;;;;;22.00;20.80;;;19.20;91.30;;;;;;5049865;28;20481;-68
2021/09/16 04:46:12;;;;;;;23.47;22.07;;;19.20;91.30;;;;;;5059793;28;20462;-67
2021/09/16 04:48:39;;;;;;;23.47;21.93;;;19.20;91.40;;;;;;5056228;28;20555;-68
2021/09/16 04:51:07;;;;;;;23.17;21.87;;;19.10;91.30;;;;;;5052211;28;21129;-68
2021/09/16 04:53:34;;;;;;;23.00;21.63;;;19.10;91.40;;;;;;5054690;28;20455;-68
2021/09/16 04:56:01;;;;;;;22.67;21.47;;;19.10;91.40;;;;;;5057056;28;20451;-69
2021/09/16 04:58:31;;;;;;;22.27;21.07;;;19.10;91.50;;;;;;5053992;28;20927;-68
2021/09/16 05:00:59;;;;;;;23.80;22.50;;;19.10;91.40;;;;;;5048700;28;20901;-70
2021/09/16 05:03:26;;;;;;;24.57;23.27;;;19.10;91.60;;;;;;5049587;28;20479;-70
2021/09/16 05:05:53;;;;;;;23.17;21.97;;;19.10;91.60;;;;;;5055867;28;20463;-69
2021/09/16 05:08:21;;;;;;;22.27;21.00;;;19.10;91.80;;;;;;5051612;28;20451;-69
2021/09/16 05:10:48;;;;;;;22.87;21.37;;;19.10;91.80;;;;;;5054328;28;20485;-71
2021/09/16 05:13:15;;;;;;;23.20;21.67;;;19.10;91.70;;;;;;5060642;28;20520;-68
2021/09/16 05:15:42;;;;;;;22.00;20.90;;;19.20;91.60;;;;;;5058321;28;20454;-68
2021/09/16 05:18:09;;;;;;;23.20;22.00;;;19.20;91.60;;;;;;5058620;28;21045;-70
2021/09/16 05:20:36;;;;;;;22.93;21.63;;;19.20;91.70;;;;;;5068626;28;20474;-71
2021/09/16 05:23:03;;;;;;;24.37;23.07;;;19.20;92.00;;;;;;5052835;28;20481;-70
2021/09/16 05:25:31;;;;;;;22.90;21.47;;;19.20;92.00;;;;;;5055815;28;20447;-70
2021/09/16 05:27:58;;;;;;;22.60;21.40;;;19.20;92.10;;;;;;5062773;28;20532;-70
2021/09/16 05:30:25;;;;;;;21.25;19.95;;;19.20;92.10;;;;;;5061801;28;20482;-69
2021/09/16 05:32:52;;;;;;;22.60;21.30;;;19.40;91.80;;;;;;5063953;28;20657;-70
2021/09/16 05:35:18;;;;;;;23.83;22.47;;;19.30;91.80;;;;;;5057208;28;21262;-70
2021/09/16 05:37:45;;;;;;;22.77;21.37;;;19.30;92.30;;;;;;5057008;28;20476;-71
2021/09/16 05:40:14;;;;;;;23.73;22.43;;;19.30;92.60;;;;;;5063026;28;20482;-71
2021/09/16 05:42:42;;;;;;;23.40;22.00;;;19.30;92.80;;;;;;5058988;28;20608;-71
2021/09/16 05:45:10;;;;;;;23.53;22.07;;;19.30;92.80;;;;;;5055707;28;20983;-71
2021/09/16 05:47:37;;;;;;;23.57;22.37;;;19.20;93.10;;;;;;5059651;28;20454;-71
2021/09/16 05:50:05;;;;;;;22.57;21.37;;;19.20;93.10;;;;;;5059414;28;20822;-71
2021/09/16 05:52:31;;;;;;;21.97;20.57;;;19.20;93.20;;;;;;5053862;28;20451;-70
2021/09/16 05:54:58;;;;;;;23.70;22.30;;;19.20;92.90;;;;;;5056914;28;20460;-70
2021/09/16 05:57:25;;;;;;;23.00;21.70;;;19.20;92.80;;;;;;5058680;28;20206;-70
2021/09/16 05:59:54;;;;;;;24.87;23.17;;;19.20;92.90;;;;;;5057602;28;20988;-70
2021/09/16 06:02:20;;;;;;;26.47;24.50;;;19.20;93.00;;;;;;5055859;28;20467;-71
2021/09/16 06:04:47;;;;;;;24.40;23.00;;;19.30;93.20;;;;;;5061017;28;20505;-70
2021/09/16 06:07:14;;;;;;;23.20;21.70;;;19.30;93.10;;;;;;5064473;28;20462;-70
2021/09/16 06:09:41;;;;;;;22.57;21.37;;;19.30;93.10;;;;;;5063577;28;20848;-71
2021/09/16 06:12:11;;;;;;;24.50;23.00;;;19.30;93.10;;;;;;5062681;28;20461;-70
2021/09/16 06:14:38;;;;;;;25.07;22.73;;;19.30;93.20;;;;;;5060767;28;20455;-70
2021/09/16 06:17:07;;;;;;;24.97;23.57;;;19.30;93.10;;;;;;5052483;28;20458;-70
2021/09/16 06:19:35;;;;;;;26.10;24.23;;;19.30;93.10;;;;;;5062696;28;20554;-71
2021/09/16 06:22:02;;;;;;;24.23;22.63;;;19.20;93.60;;;;;;5065787;28;20451;-70
2021/09/16 06:24:29;;;;;;;24.57;22.77;;;19.10;94.30;;;;;;5058352;28;20467;-70
2021/09/16 06:26:56;;;;;;;25.67;24.17;;;19.10;94.50;;;;;;5061442;28;20485;-69
2021/09/16 06:29:23;;;;;;;23.50;22.00;;;19.10;94.50;;;;;;5066945;28;21165;-69
2021/09/16 06:31:50;;;;;;;25.13;23.30;;;19.10;94.60;;;;;;5052807;28;20469;-69
2021/09/16 06:34:18;;;;;;;23.20;21.87;;;19.20;94.60;;;;;;5058810;28;20459;-70
2021/09/16 06:36:45;;;;;;;23.33;21.90;;;19.20;94.40;;;;;;5055243;28;20458;-70
2021/09/16 06:39:12;;;;;;;23.00;21.40;;;19.30;93.90;;;;;;5052167;28;20471;-70
2021/09/16 06:41:39;;;;;;;25.73;24.23;;;19.30;93.70;;;;;;5061366;28;21040;-70
2021/09/16 06:44:06;;;;;;;22.57;21.17;;;19.20;93.90;;;;;;5053713;28;20470;-70
2021/09/16 06:46:33;;;;;;;24.63;22.83;;;19.30;93.90;;;;;;5053823;28;20483;-71
2021/09/16 06:49:00;;;;;;;22.10;20.70;;;19.40;93.40;;;;;;5052227;28;20483;-70
2021/09/16 06:51:28;;;;;;;24.97;23.60;;;19.40;93.40;;;;;;5055910;28;20494;-68
2021/09/16 06:53:55;;;;;;;23.40;21.90;;;19.40;93.40;;;;;;5050605;28;20455;-69
2021/09/16 06:56:22;;;;;;;24.87;23.27;;;19.30;93.80;;;;;;5055495;28;20982;-68
2021/09/16 06:58:49;;;;;;;23.60;22.00;;;19.30;93.80;;;;;;5063377;28;20473;-69
2021/09/16 07:01:16;;;;;;;23.77;22.37;;;19.40;93.60;;;;;;5051450;28;21025;-72
2021/09/16 07:03:43;;;;;;;23.93;22.53;;;19.40;93.50;;;;;;5055903;28;20494;-69
2021/09/16 07:06:10;;;;;;;21.70;20.50;;;19.50;93.40;;;;;;5059494;28;20485;-70
2021/09/16 07:08:38;;;;;;;22.97;21.57;;;19.60;93.10;;;;;;5061325;28;20930;-70
2021/09/16 07:11:05;;;;;;;24.30;22.60;;;19.70;92.60;;;;;;5057392;28;20458;-69
2021/09/16 07:13:32;;;;;;;22.30;21.10;;;19.80;92.20;;;;;;5057313;28;20443;-69
2021/09/16 07:15:59;;;;;;;23.30;21.83;;;19.90;92.00;;;;;;5053996;28;21329;-69
2021/09/16 07:18:26;;;;;;;24.27;22.97;;;19.90;91.60;;;;;;5062204;28;20458;-69
2021/09/16 07:20:53;;;;;;;25.47;23.83;;;19.70;92.30;;;;;;5061524;28;20476;-69
2021/09/16 07:23:20;;;;;;;24.70;23.10;;;19.70;92.70;;;;;;5057623;28;20492;-69
2021/09/16 07:25:48;;;;;;;23.10;21.47;;;19.80;92.60;;;;;;5060996;28;20450;-69
2021/09/16 07:28:15;;;;;;;23.73;22.27;;;19.80;92.50;;;;;;5057518;28;20456;-70
2021/09/16 07:30:41;;;;;;;25.97;24.23;;;19.70;92.50;;;;;;5062180;28;20490;-70
2021/09/16 07:33:08;;;;;;;23.80;22.50;;;19.70;93.10;;;;;;5061222;28;20455;-71
2021/09/16 07:35:35;;;;;;;24.87;23.37;;;19.60;93.00;;;;;;5052998;28;20828;-71
2021/09/16 07:38:02;;;;;;;23.47;22.00;;;19.40;93.30;;;;;;5050518;28;20542;-71
2021/09/16 07:40:29;;;;;;;22.60;21.30;;;19.50;93.40;;;;;;5052360;28;20486;-69
2021/09/16 07:42:57;;;;;;;25.00;23.50;;;19.60;93.20;;;;;;5062522;28;20472;-69
2021/09/16 07:45:24;;;;;;;25.70;24.20;;;19.60;93.00;;;;;;5057555;28;20467;-68
2021/09/16 07:47:51;;;;;;;27.17;25.50;;;19.40;92.90;;;;;;5051354;28;21055;-70
2021/09/16 07:50:18;;;;;;;29.50;27.80;;;19.20;93.40;;;;;;5050564;28;20494;-72
2021/09/16 07:52:45;;;;;;;28.27;26.47;;;19.10;93.80;;;;;;5048499;28;20936;-73
2021/09/16 07:55:12;;;;;;;26.63;25.00;;;18.80;94.80;;;;;;5065523;28;20442;-69
2021/09/16 07:57:39;;;;;;;27.60;25.90;;;18.70;94.90;;;;;;5054177;28;20447;-69
2021/09/16 08:00:09;;;;;;;28.07;26.47;;;18.70;94.80;;;;;;5057546;28;20550;-69
2021/09/16 08:02:44;;;;;;;26.57;24.90;;;18.80;95.00;;;;;;5059007;28;20473;-69
2021/09/16 08:05:11;;;;;;;25.33;23.93;;;18.80;95.50;;;;;;5054965;28;20489;-71
2021/09/16 08:07:38;;;;;;;25.23;23.73;;;18.90;95.30;;;;;;5051704;28;20557;-72
2021/09/16 08:10:06;;;;;;;23.10;21.90;;;19.00;94.60;;;;;;5055314;28;20565;-69
2021/09/16 08:12:33;;;;;;;23.00;21.70;;;19.00;92.90;;;;;;5054641;28;20552;-69
2021/09/16 08:15:00;;;;;;;22.53;21.43;;;18.90;93.40;;;;;;5055854;28;20454;-68
2021/09/16 08:17:29;;;;;;;24.20;22.90;;;18.90;92.90;;;;;;5050862;28;20455;-68
2021/09/16 08:19:55;;;;;;;20.83;19.73;;;18.80;93.20;;;;;;5054370;28;20478;-68
2021/09/16 08:22:22;;;;;;;22.20;21.00;;;18.90;93.80;;;;;;5049735;28;20558;-69
2021/09/16 08:24:49;;;;;;;22.20;21.10;;;18.60;93.30;;;;;;5063700;28;20576;-69
2021/09/16 08:27:17;;;;;;;20.83;19.73;;;18.60;93.80;;;;;;5052748;28;20465;-68
2021/09/16 08:29:43;;;;;;;22.00;20.90;;;18.60;93.80;;;;;;5061036;28;20922;-68
2021/09/16 08:32:10;;;;;;;20.47;19.47;;;18.70;93.70;;;;;;5057719;28;20847;-69
2021/09/16 08:34:40;;;;;;;20.80;19.57;;;18.60;93.30;;;;;;5049317;28;20487;-69
2021/09/16 08:37:07;;;;;;;20.50;19.47;;;18.70;93.60;;;;;;5060310;28;20538;-70
2021/09/16 08:39:34;;;;;;;20.90;19.90;;;18.70;93.80;;;;;;5062485;28;20470;-69
2021/09/16 08:42:01;;;;;;;20.03;18.43;;;18.60;92.90;;;;;;5057463;28;20573;-69
2021/09/16 08:44:28;;;;;;;19.50;18.60;;;18.50;93.70;;;;;;5055051;28;20471;-69
2021/09/16 08:46:55;;;;;;;20.10;19.00;;;18.50;93.60;;;;;;5051132;28;20821;-69
2021/09/16 08:49:22;;;;;;;21.17;20.13;;;18.60;93.50;;;;;;5056018;28;20489;-70
2021/09/16 08:51:50;;;;;;;19.63;18.73;;;18.50;93.60;;;;;;5057391;28;20533;-69
2021/09/16 08:54:22;;;;;;;19.97;19.00;;;18.50;93.90;;;;;;5051032;28;20468;-69
2021/09/16 08:56:49;;;;;;;20.23;19.33;;;18.40;93.40;;;;;;5052390;28;20459;-68
2021/09/16 08:59:16;;;;;;;21.53;20.50;;;18.30;93.60;;;;;;5052267;28;20483;-68
2021/09/16 09:01:46;;;;;;;19.83;18.93;;;18.10;94.20;;;;;;5051903;28;20463;-68
2021/09/16 09:04:13;;;;;;;21.10;20.10;;;18.10;93.90;;;;;;5051232;28;20472;-68
2021/09/16 09:06:42;;;;;;;21.93;20.67;;;17.80;95.30;;;;;;5060575;28;20469;-68
2021/09/16 09:09:13;;;;;;;20.00;19.10;;;17.80;95.20;;;;;;5062465;28;22657;-68
2021/09/16 09:11:55;;;;;;;21.97;20.87;;;17.70;95.90;;;;;;5055582;28;20812;-68
2021/09/16 09:14:23;;;;;;;20.80;19.80;;;17.80;96.20;;;;;;5047603;28;20534;-68
2021/09/16 09:16:50;;;;;;;23.40;22.17;;;17.90;95.80;;;;;;5049843;28;20459;-68
2021/09/16 09:19:20;;;;;;;25.13;23.83;;;17.90;95.20;;;;;;5050199;28;20500;-69
2021/09/16 09:21:48;;;;;;;26.20;24.50;;;17.90;95.40;;;;;;5069420;28;20480;-68
2021/09/16 09:24:29;;;;;;;25.10;23.60;;;17.90;95.40;;;;;;5050192;28;20845;-68
2021/09/16 09:26:57;;;;;;;28.70;27.00;;;18.00;95.00;;;;;;5056082;28;20473;-68
2021/09/16 09:29:25;;;;;;;26.70;25.20;;;18.00;94.60;;;;;;5051619;28;20474;-70
2021/09/16 09:31:57;;;;;;;26.07;24.37;;;18.10;93.90;;;;;;5052920;28;20526;-69
2021/09/16 09:34:27;;;;;;;28.13;26.13;;;18.30;93.00;;;;;;5053923;28;20455;-69
2021/09/16 09:37:07;;;;;;;27.00;25.40;;;18.40;92.80;;;;;;5056334;28;20490;-69
2021/09/16 09:39:38;;;;;;;25.97;24.47;;;18.30;93.10;;;;;;5056257;28;20488;-69
2021/09/16 09:42:22;;;;;;;24.47;23.07;;;18.30;93.00;;;;;;5046682;28;20463;-70
2021/09/16 09:44:55;;;;;;;23.90;22.70;;;18.30;93.20;;;;;;5056841;28;20478;-69
2021/09/16 09:47:37;;;;;;;25.67;24.27;;;18.30;93.00;;;;;;5058428;28;20509;-69
2021/09/16 09:50:06;;;;;;;24.50;23.10;;;18.30;92.60;;;;;;5058286;28;20556;-70
2021/09/16 09:52:33;;;;;;;24.20;22.80;;;18.30;92.90;;;;;;5048220;28;20490;-70
2021/09/16 09:55:12;;;;;;;24.83;23.43;;;18.00;93.20;;;;;;5062898;28;20458;-70
2021/09/16 09:57:39;;;;;;;24.80;23.50;;;17.90;93.80;;;;;;5053058;28;20504;-69
2021/09/16 10:00:09;;;;;;;27.00;25.10;;;17.80;93.50;;;;;;5063681;28;20478;-70
2021/09/16 10:02:49;;;;;;;27.47;25.57;;;17.80;93.30;;;;;;5056614;28;20475;-69
2021/09/16 10:05:22;;;;;;;29.73;27.73;;;17.60;94.00;;;;;;5066847;28;20482;-70
2021/09/16 10:07:49;;;;;;;27.70;26.00;;;17.50;94.70;;;;;;5060806;28;20450;-70
2021/09/16 10:10:18;;;;;;;29.47;27.57;;;17.30;94.80;;;;;;5061488;28;20479;-70
2021/09/16 10:12:47;;;;;;;27.90;26.00;;;17.30;95.40;;;;;;5063097;28;20461;-70
2021/09/16 10:15:17;;;;;;;30.43;28.43;;;17.40;95.30;;;;;;5069867;28;20450;-70
2021/09/16 10:17:44;;;;;;;30.80;28.77;;;17.40;94.80;;;;;;5053556;28;20457;-69
2021/09/16 10:20:13;;;;;;;29.80;27.80;;;17.20;95.30;;;;;;5060860;28;20510;-70
2021/09/16 10:22:41;;;;;;;31.23;29.13;;;17.40;95.20;;;;;;5054214;28;20463;-70
2021/09/16 10:25:09;;;;;;;33.73;31.47;;;17.60;94.70;;;;;;5050995;28;22727;-70
2021/09/16 10:27:41;;;;;;;32.53;30.43;;;17.70;93.70;;;;;;5056913;28;20506;-69
2021/09/16 10:30:34;;;;;;;31.70;29.60;;;17.60;93.30;;;;;;5051749;28;20544;-69
2021/09/16 10:33:04;;;;;;;30.47;28.50;;;17.50;94.20;;;;;;5053021;28;20459;-70
2021/09/16 10:35:33;;;;;;;31.80;29.60;;;17.70;93.40;;;;;;5062221;28;20967;-69
2021/09/16 10:38:22;;;;;;;30.53;28.43;;;17.40;93.10;;;;;;5058963;28;20454;-70
2021/09/16 10:40:50;;;;;;;30.23;28.23;;;17.40;94.20;;;;;;5065012;28;20478;-69
2021/09/16 10:43:24;;;;;;;31.07;28.87;;;17.40;93.90;;;;;;5052043;28;20499;-70
2021/09/16 10:45:51;;;;;;;31.73;29.57;;;17.30;94.00;;;;;;5057871;28;20482;-69
2021/09/16 10:48:29;;;;;;;29.90;27.70;;;17.70;93.40;;;;;;5051859;28;20820;-69
2021/09/16 10:51:01;;;;;;;31.77;29.70;;;17.90;92.20;;;;;;5058041;28;21646;-69
2021/09/16 10:53:44;;;;;;;33.37;30.87;;;18.00;92.10;;;;;;5057490;28;20463;-69
2021/09/16 10:56:36;;;;;;;33.20;30.80;;;17.70;92.30;;;;;;5054900;28;20462;-70
2021/09/16 10:59:04;;;;;;;31.53;29.33;;;17.70;93.30;;;;;;5048563;28;20561;-70
2021/09/16 11:01:58;;;;;;;33.00;30.80;;;17.70;91.90;;;;;;5061284;28;20469;-69
2021/09/16 11:04:25;;;;;;;36.93;34.40;;;17.80;92.40;;;;;;5062346;28;21054;-69
2021/09/16 11:06:52;;;;;;;31.70;29.70;;;17.70;92.10;;;;;;5064323;28;20458;-69
2021/09/16 11:09:27;;;;;;;35.43;33.03;;;17.80;91.00;;;;;;5053914;28;20477;-70
2021/09/16 11:11:58;;;;;;;35.07;32.57;;;17.90;90.90;;;;;;5058458;28;20885;-70
2021/09/16 11:14:42;;;;;;;34.50;31.73;;;18.10;90.50;;;;;;5053937;28;20458;-70
2021/09/16 11:17:11;;;;;;;37.17;34.57;;;18.00;89.30;;;;;;5063792;28;20460;-69
2021/09/16 11:19:48;;;;;;;35.97;33.10;;;17.90;89.50;;;;;;5057163;28;20475;-70
2021/09/16 11:22:21;;;;;;;34.80;32.30;;;17.70;90.50;;;;;;5057816;28;20941;-70
2021/09/16 11:24:49;;;;;;;33.80;31.30;;;17.70;90.20;;;;;;5065398;28;20507;-69
2021/09/16 11:27:25;;;;;;;37.30;34.60;;;17.80;90.40;;;;;;5057855;28;20462;-70
2021/09/16 11:29:54;;;;;;;36.03;33.43;;;17.90;89.70;;;;;;5051515;28;20473;-70
2021/09/16 11:32:22;;;;;;;38.13;35.50;;;17.90;89.60;;;;;;5052581;28;20447;-69
2021/09/16 11:34:54;;;;;;;35.10;32.23;;;17.90;89.70;;;;;;5054792;28;20538;-69
2021/09/16 11:37:28;;;;;;;35.00;32.50;;;17.80;89.30;;;;;;5055665;28;20458;-70
2021/09/16 11:39:57;;;;;;;36.83;34.23;;;17.90;88.80;;;;;;5056124;28;20487;-70
2021/09/16 11:42:24;;;;;;;34.50;31.90;;;18.00;89.20;;;;;;5055648;28;20455;-70
2021/09/16 11:44:59;;;;;;;35.00;32.50;;;18.00;87.60;;;;;;5051380;28;20462;-69
2021/09/16 11:47:26;;;;;;;35.47;33.03;;;18.10;87.50;;;;;;5060669;28;21121;-69
2021/09/16 11:49:53;;;;;;;34.73;32.33;;;18.20;87.00;;;;;;5055583;28;20565;-70
2021/09/16 11:52:21;;;;;;;35.00;32.50;;;18.50;85.80;;;;;;5061854;28;20537;-71
2021/09/16 11:55:10;;;;;;;35.03;32.17;;;18.80;85.10;;;;;;5068223;28;20537;-70
2021/09/16 11:57:56;;;;;;;34.87;32.37;;;18.90;84.20;;;;;;5052290;28;20454;-71
2021/09/16 12:00:27;;;;;;;36.30;33.40;;;19.00;83.60;;;;;;5055951;28;20493;-71
2021/09/16 12:02:55;;;;;;;38.50;35.70;;;18.70;84.30;;;;;;5058593;28;20545;-71
2021/09/16 12:05:39;;;;;;;37.00;34.20;;;18.40;85.70;;;;;;5059725;28;20477;-71
2021/09/16 12:08:08;;;;;;;36.40;33.33;;;18.50;86.00;;;;;;5047828;28;20482;-70
2021/09/16 12:10:38;;;;;;;36.80;33.80;;;18.40;86.20;;;;;;5050712;28;20562;-71
2021/09/16 12:13:05;;;;;;;38.17;35.07;;;18.40;86.40;;;;;;5059472;28;20458;-70
2021/09/16 12:15:34;;;;;;;38.87;35.90;;;18.40;86.50;;;;;;5060183;28;20533;-70
2021/09/16 12:18:01;;;;;;;38.37;35.57;;;18.50;86.30;;;;;;5056106;28;20863;-71
2021/09/16 12:20:28;;;;;;;39.03;36.23;;;18.50;86.30;;;;;;5055909;28;20483;-71
2021/09/16 12:22:55;;;;;;;39.67;36.57;;;18.40;86.90;;;;;;5049787;28;20451;-70
2021/09/16 12:25:23;;;;;;;38.80;35.70;;;18.40;86.50;;;;;;5059638;28;21066;-71
2021/09/16 12:28:07;;;;;;;39.87;36.90;;;18.40;87.00;;;;;;5056865;28;20460;-71
2021/09/16 12:30:39;;;;;;;39.30;36.23;;;18.20;86.70;;;;;;5058617;28;21212;-71
2021/09/16 12:33:35;;;;;;;39.60;36.60;;;18.00;88.30;;;;;;5053182;28;20454;-71
2021/09/16 12:36:15;;;;;;;38.97;35.77;;;18.00;88.40;;;;;;5060945;28;21189;-71